createdAt,value
2023-04-06T00:00:27.155Z,2.00
2023-04-06T00:02:55.944Z,1.98
2023-04-06T00:05:25.059Z,1.70
2023-04-06T00:07:55.250Z,2.00
2023-04-06T00:10:23.998Z,2.17
2023-04-06T00:12:54.187Z,1.65
2023-04-06T00:15:23.065Z,2.55
2023-04-06T00:17:51.990Z,2.00
2023-04-06T00:20:21.381Z,2.10
2023-04-06T00:22:50.104Z,2.20
2023-04-06T00:25:18.855Z,2.10
2023-04-06T00:27:47.630Z,2.08
2023-04-06T00:30:17.858Z,2.28
2023-04-06T00:32:46.763Z,1.98
2023-04-06T00:35:16.128Z,1.80
2023-04-06T00:37:44.979Z,2.38
2023-04-06T00:40:13.759Z,2.05
2023-04-06T00:42:42.701Z,2.10
2023-04-06T00:45:12.149Z,2.00
2023-04-06T00:47:43.273Z,2.20
2023-04-06T00:50:12.364Z,2.22
2023-04-06T00:52:41.341Z,2.03
2023-04-06T00:55:11.744Z,2.30
2023-04-06T00:57:44.156Z,2.17
2023-04-06T01:00:13.481Z,2.40
2023-04-06T01:02:46.047Z,2.63
2023-04-06T01:05:15.427Z,2.38
2023-04-06T01:07:57.040Z,2.63
2023-04-06T01:10:30.045Z,1.95
2023-04-06T01:13:09.533Z,2.20
2023-04-06T01:16:00.204Z,2.28
2023-04-06T01:18:51.141Z,2.45
2023-04-06T01:21:31.111Z,2.40
2023-04-06T01:24:21.629Z,2.20
2023-04-06T01:27:27.446Z,2.25
2023-04-06T01:30:25.905Z,2.63
2023-04-06T01:32:59.654Z,2.50
2023-04-06T01:35:59.476Z,2.33
2023-04-06T01:38:28.577Z,2.58
2023-04-06T01:40:58.757Z,2.63
2023-04-06T01:43:30.496Z,2.60
2023-04-06T01:46:08.530Z,2.65
2023-04-06T01:48:41.148Z,3.10
2023-04-06T01:51:35.731Z,2.97
2023-04-06T01:54:07.642Z,3.03
2023-04-06T01:56:58.048Z,2.70
2023-04-06T01:59:37.343Z,2.80
2023-04-06T02:02:13.900Z,2.38
2023-04-06T02:04:46.998Z,2.58
2023-04-06T02:07:16.747Z,2.70
2023-04-06T02:09:45.568Z,2.95
2023-04-06T02:12:24.915Z,3.22
2023-04-06T02:14:54.675Z,2.60
2023-04-06T02:17:23.647Z,2.95
2023-04-06T02:19:52.477Z,2.38
2023-04-06T02:22:21.233Z,2.65
2023-04-06T02:24:49.994Z,2.42
2023-04-06T02:27:18.741Z,2.50
2023-04-06T02:29:50.910Z,2.75
2023-04-06T02:32:22.743Z,2.40
2023-04-06T02:34:51.634Z,2.58
2023-04-06T02:37:22.990Z,2.88
2023-04-06T02:39:51.727Z,3.00
2023-04-06T02:42:20.604Z,2.83
2023-04-06T02:44:53.067Z,2.78
2023-04-06T02:47:24.271Z,2.95
2023-04-06T02:49:54.262Z,2.75
2023-04-06T02:52:23.016Z,2.50
2023-04-06T02:54:52.487Z,2.97
2023-04-06T02:57:27.734Z,2.33
2023-04-06T02:59:58.310Z,2.53
2023-04-06T03:02:35.647Z,2.75
2023-04-06T03:05:10.284Z,2.78
2023-04-06T03:07:43.565Z,2.47
2023-04-06T03:10:19.156Z,2.35
2023-04-06T03:12:49.810Z,2.45
2023-04-06T03:15:26.313Z,2.67
2023-04-06T03:18:03.088Z,2.83
2023-04-06T03:20:45.450Z,2.53
2023-04-06T03:23:16.977Z,2.60
2023-04-06T03:25:47.455Z,2.08
2023-04-06T03:28:19.718Z,2.40
2023-04-06T03:30:55.216Z,2.20
2023-04-06T03:33:42.390Z,2.50
2023-04-06T03:36:16.293Z,2.58
2023-04-06T03:38:46.517Z,2.70
2023-04-06T03:41:16.864Z,2.40
2023-04-06T03:43:53.248Z,2.50
2023-04-06T03:46:23.593Z,2.33
2023-04-06T03:48:55.602Z,2.40
2023-04-06T03:51:26.261Z,2.80
2023-04-06T03:53:54.972Z,2.40
2023-04-06T03:56:23.904Z,2.70
2023-04-06T03:58:52.814Z,2.53
2023-04-06T04:01:24.765Z,2.63
2023-04-06T04:03:53.761Z,2.60
2023-04-06T04:06:22.660Z,2.85
2023-04-06T04:08:51.466Z,2.50
2023-04-06T04:11:20.166Z,2.50
2023-04-06T04:13:55.314Z,2.13
2023-04-06T04:16:25.567Z,2.63
2023-04-06T04:18:54.391Z,2.00
2023-04-06T04:21:23.185Z,2.40
2023-04-06T04:23:52.046Z,2.50
2023-04-06T04:26:20.996Z,2.20
2023-04-06T04:28:49.846Z,2.50
2023-04-06T04:31:20.989Z,2.30
2023-04-06T04:33:55.525Z,3.00
2023-04-06T04:36:30.704Z,2.40
2023-04-06T04:39:02.602Z,2.25
2023-04-06T04:41:35.208Z,2.00
2023-04-06T04:44:04.498Z,2.40
2023-04-06T04:46:33.270Z,2.08
2023-04-06T04:49:03.664Z,2.47
2023-04-06T04:51:34.819Z,2.25
2023-04-06T04:54:23.773Z,2.15
2023-04-06T04:56:52.569Z,2.58
2023-04-06T04:59:42.854Z,2.50
2023-04-06T05:02:19.113Z,2.25
2023-04-06T05:05:15.265Z,2.33
2023-04-06T05:07:44.487Z,2.25
2023-04-06T05:10:21.783Z,2.10
2023-04-06T05:13:01.261Z,2.30
2023-04-06T05:15:31.284Z,2.30
2023-04-06T05:18:08.126Z,2.13
2023-04-06T05:20:39.203Z,2.42
2023-04-06T05:23:08.272Z,2.25
2023-04-06T05:25:37.273Z,2.45
2023-04-06T05:28:16.969Z,2.50
2023-04-06T05:30:49.705Z,2.88
2023-04-06T05:33:19.252Z,2.67
2023-04-06T05:36:06.567Z,2.13
2023-04-06T05:38:36.379Z,2.60
2023-04-06T05:41:14.325Z,2.45
2023-04-06T05:43:44.360Z,2.30
2023-04-06T05:46:13.392Z,2.55
2023-04-06T05:48:42.623Z,2.10
2023-04-06T05:51:14.197Z,2.30
2023-04-06T05:53:52.298Z,2.80
2023-04-06T05:56:21.404Z,2.30
2023-04-06T05:58:50.624Z,2.08
2023-04-06T06:01:25.835Z,2.08
2023-04-06T06:03:54.609Z,2.20
2023-04-06T06:06:26.160Z,2.22
2023-04-06T06:09:17.435Z,2.17
2023-04-06T06:11:55.687Z,2.47
2023-04-06T06:14:29.476Z,2.40
2023-04-06T06:16:58.562Z,2.20
2023-04-06T06:19:27.370Z,2.30
2023-04-06T06:22:03.440Z,2.60
2023-04-06T06:24:33.378Z,2.30
2023-04-06T06:27:03.103Z,2.55
2023-04-06T06:29:34.869Z,2.30
2023-04-06T06:32:03.613Z,2.45
2023-04-06T06:34:32.762Z,2.72
2023-04-06T06:37:06.194Z,2.80
2023-04-06T06:39:36.241Z,2.50
2023-04-06T06:42:05.643Z,2.35
2023-04-06T06:44:54.168Z,2.47
2023-04-06T06:47:22.990Z,2.25
2023-04-06T06:49:51.855Z,2.65
2023-04-06T06:52:22.763Z,2.50
2023-04-06T06:54:51.564Z,2.53
2023-04-06T06:57:22.706Z,2.90
2023-04-06T06:59:52.081Z,2.25
2023-04-06T07:02:22.610Z,2.67
2023-04-06T07:04:51.501Z,2.70
2023-04-06T07:07:22.125Z,2.50
2023-04-06T07:09:50.986Z,2.50
2023-04-06T07:12:20.027Z,2.53
2023-04-06T07:14:48.874Z,2.55
2023-04-06T07:17:17.955Z,2.20
2023-04-06T07:19:47.068Z,2.00
2023-04-06T07:22:15.842Z,2.38
2023-04-06T07:24:46.104Z,2.38
2023-04-06T07:27:17.441Z,2.03
2023-04-06T07:29:46.705Z,2.42
2023-04-06T07:32:15.875Z,2.15
2023-04-06T07:34:46.202Z,2.00
2023-04-06T07:37:15.448Z,2.30
2023-04-06T07:39:46.614Z,2.30
2023-04-06T07:42:15.935Z,1.88
2023-04-06T07:44:45.996Z,1.90
2023-04-06T07:47:14.758Z,2.15
2023-04-06T07:49:43.938Z,1.83
2023-04-06T07:52:12.917Z,2.08
2023-04-06T07:54:43.636Z,1.90
2023-04-06T07:57:13.794Z,1.88
2023-04-06T07:59:42.665Z,2.10
2023-04-06T08:02:11.626Z,1.90
2023-04-06T08:04:40.710Z,2.10
2023-04-06T08:07:09.700Z,2.20
2023-04-06T08:09:38.735Z,2.20
2023-04-06T08:12:07.600Z,1.95
2023-04-06T08:14:37.870Z,2.08
2023-04-06T08:17:06.767Z,1.95
2023-04-06T08:19:35.630Z,2.00
2023-04-06T08:22:04.493Z,1.90
2023-04-06T08:24:33.916Z,1.80
2023-04-06T08:27:02.642Z,1.92
2023-04-06T08:29:31.388Z,2.30
2023-04-06T08:32:01.601Z,1.60
2023-04-06T08:34:30.376Z,1.30
2023-04-06T08:36:59.676Z,1.58
2023-04-06T08:39:28.749Z,1.50
2023-04-06T08:42:00.786Z,1.42
2023-04-06T08:44:29.689Z,1.50
2023-04-06T08:46:58.525Z,1.58
2023-04-06T08:49:28.715Z,1.45
2023-04-06T08:51:58.419Z,1.67
2023-04-06T08:54:27.232Z,1.40
2023-04-06T08:56:57.474Z,1.45
2023-04-06T08:59:26.798Z,1.60
2023-04-06T09:01:56.599Z,1.65
2023-04-06T09:04:25.523Z,1.60
2023-04-06T09:06:55.834Z,1.85
2023-04-06T09:09:26.129Z,1.40
2023-04-06T09:11:56.088Z,1.35
2023-04-06T09:14:37.048Z,1.55
2023-04-06T09:17:05.963Z,1.75
2023-04-06T09:19:34.711Z,1.73
2023-04-06T09:22:09.110Z,1.52
2023-04-06T09:24:44.860Z,1.70
2023-04-06T09:27:13.925Z,1.65
2023-04-06T09:29:43.618Z,1.38
2023-04-06T09:32:12.803Z,1.83
2023-04-06T09:34:41.793Z,1.50
2023-04-06T09:37:19.055Z,1.80
2023-04-06T09:39:48.667Z,1.80
2023-04-06T09:42:26.969Z,1.52
2023-04-06T09:44:55.901Z,1.58
2023-04-06T09:47:27.153Z,1.60
2023-04-06T09:49:59.294Z,1.60
2023-04-06T09:52:30.476Z,2.05
2023-04-06T09:55:02.260Z,2.17
2023-04-06T09:57:33.827Z,1.45
2023-04-06T10:00:09.242Z,1.13
2023-04-06T10:02:44.437Z,1.40
2023-04-06T10:05:23.155Z,1.55
2023-04-06T10:08:00.207Z,2.20
2023-04-06T10:10:30.258Z,1.20
2023-04-06T10:12:59.247Z,1.45
2023-04-06T10:15:28.122Z,1.80
2023-04-06T10:17:57.592Z,1.60
2023-04-06T10:20:29.938Z,1.90
2023-04-06T10:23:02.298Z,2.10
2023-04-06T10:25:31.553Z,1.33
2023-04-06T10:28:03.541Z,1.50
2023-04-06T10:30:32.990Z,1.38
2023-04-06T10:33:01.881Z,1.52
2023-04-06T10:35:40.343Z,1.50
2023-04-06T10:38:10.806Z,3.78
2023-04-06T10:40:40.142Z,3.00
2023-04-06T10:43:12.717Z,1.73
2023-04-06T10:45:44.144Z,1.20
2023-04-06T10:48:16.995Z,2.00
2023-04-06T10:50:47.352Z,1.58
2023-04-06T10:53:23.783Z,1.42
2023-04-06T10:55:52.921Z,1.40
2023-04-06T10:58:21.888Z,1.50
2023-04-06T11:00:51.850Z,1.48
2023-04-06T11:03:21.419Z,1.98
2023-04-06T11:05:50.891Z,2.30
2023-04-06T11:08:30.650Z,1.67
2023-04-06T11:11:09.563Z,1.90
2023-04-06T11:13:42.181Z,1.77
2023-04-06T11:16:15.478Z,1.33
2023-04-06T11:18:51.554Z,1.80
2023-04-06T11:21:20.347Z,2.60
2023-04-06T11:23:50.605Z,1.77
2023-04-06T11:26:19.376Z,2.03
2023-04-06T11:28:48.332Z,1.73
2023-04-06T11:31:17.240Z,1.63
2023-04-06T11:33:46.084Z,1.70
2023-04-06T11:36:16.667Z,1.52
2023-04-06T11:38:45.889Z,1.40
2023-04-06T11:41:16.110Z,1.90
2023-04-06T11:43:50.173Z,1.70
2023-04-06T11:46:21.470Z,1.52
2023-04-06T11:48:50.307Z,1.50
2023-04-06T11:51:25.295Z,1.70
2023-04-06T11:53:54.089Z,1.67
2023-04-06T11:56:28.159Z,1.67
2023-04-06T11:59:00.892Z,2.05
2023-04-06T12:01:30.887Z,1.63
2023-04-06T12:04:00.166Z,1.33
2023-04-06T12:06:29.188Z,1.30
2023-04-06T12:08:57.998Z,2.35
2023-04-06T12:11:30.468Z,1.88
2023-04-06T12:14:00.401Z,2.00
2023-04-06T12:16:29.339Z,1.50
2023-04-06T12:18:58.201Z,1.38
2023-04-06T12:21:27.074Z,1.63
2023-04-06T12:23:55.870Z,2.20
2023-04-06T12:26:24.741Z,2.25
2023-04-06T12:28:55.042Z,2.10
2023-04-06T12:31:24.357Z,2.50
2023-04-06T12:33:53.275Z,1.65
2023-04-06T12:36:22.879Z,1.80
2023-04-06T12:38:51.839Z,2.90
2023-04-06T12:41:20.901Z,2.10
2023-04-06T12:43:50.568Z,2.58
2023-04-06T12:46:21.170Z,1.90
2023-04-06T12:48:50.538Z,1.98
2023-04-06T12:51:19.462Z,1.50
2023-04-06T12:53:48.181Z,2.05
2023-04-06T12:56:18.064Z,2.10
2023-04-06T12:58:46.887Z,2.10
2023-04-06T13:01:16.944Z,2.15
2023-04-06T13:03:47.461Z,1.80
2023-04-06T13:09:09.462Z,1.50
2023-04-06T13:11:38.163Z,1.80
2023-04-06T13:14:06.995Z,1.75
2023-04-06T13:16:36.334Z,1.70
2023-04-06T13:19:06.562Z,1.58
2023-04-06T13:21:35.511Z,1.60
2023-04-06T13:24:05.965Z,1.90
2023-04-06T13:26:34.981Z,4.82
2023-04-06T13:29:04.078Z,1.90
2023-04-06T13:31:33.030Z,1.88
2023-04-06T13:34:01.796Z,1.60
2023-04-06T13:36:32.785Z,1.60
2023-04-06T13:39:01.880Z,2.25
2023-04-06T13:41:31.438Z,1.95
2023-04-06T13:44:00.462Z,1.70
2023-04-06T13:46:29.196Z,2.15
2023-04-06T13:48:58.194Z,1.77
2023-04-06T13:51:28.154Z,1.80
2023-04-06T13:53:58.632Z,1.83
2023-04-06T13:56:27.581Z,1.65
2023-04-06T13:58:57.715Z,1.80
2023-04-06T14:01:27.825Z,1.70
2023-04-06T14:03:57.096Z,2.03
2023-04-06T14:06:31.781Z,1.92
2023-04-06T14:09:02.379Z,2.08
2023-04-06T14:11:31.368Z,1.55
2023-04-06T14:14:00.318Z,2.10
2023-04-06T14:16:29.291Z,1.88
2023-04-06T14:19:00.338Z,2.45
2023-04-06T14:21:29.481Z,1.63
2023-04-06T14:23:59.784Z,1.95
2023-04-06T14:26:30.026Z,3.28
2023-04-06T14:28:58.805Z,2.28
2023-04-06T14:31:27.487Z,5.53
2023-04-06T14:33:56.444Z,1.83
2023-04-06T14:36:27.644Z,2.60
2023-04-06T14:38:56.264Z,1.92
2023-04-06T14:41:25.916Z,1.90
2023-04-06T14:43:56.068Z,1.95
2023-04-06T14:46:24.836Z,1.80
2023-04-06T14:48:53.565Z,1.98
2023-04-06T14:51:22.365Z,1.80
2023-04-06T14:53:51.098Z,2.53
2023-04-06T14:56:22.964Z,2.20
2023-04-06T14:58:51.883Z,1.73
2023-04-06T15:01:22.686Z,2.40
2023-04-06T15:03:51.685Z,3.03
2023-04-06T15:06:21.821Z,1.95
2023-04-06T15:08:50.836Z,1.77
2023-04-06T15:11:19.557Z,1.90
2023-04-06T15:13:48.462Z,2.08
2023-04-06T15:16:17.204Z,3.63
2023-04-06T15:18:48.058Z,2.45
2023-04-06T15:21:16.805Z,2.13
2023-04-06T15:23:45.700Z,3.28
2023-04-06T15:26:14.696Z,2.60
2023-04-06T15:28:43.382Z,2.38
2023-04-06T15:31:32.948Z,2.22
2023-04-06T15:34:03.809Z,1.83
2023-04-06T15:36:32.564Z,1.67
2023-04-06T15:39:01.758Z,2.00
2023-04-06T15:41:30.770Z,1.70
2023-04-06T15:43:59.641Z,1.63
2023-04-06T15:46:29.034Z,1.45
2023-04-06T15:48:58.029Z,1.73
2023-04-06T15:51:30.135Z,2.10
2023-04-06T15:53:59.705Z,2.33
2023-04-06T15:56:28.526Z,2.38
2023-04-06T15:58:57.609Z,2.03
2023-04-06T16:01:26.352Z,2.80
2023-04-06T16:03:55.268Z,5.90
2023-04-06T16:06:24.177Z,3.05
2023-04-06T16:08:54.261Z,2.40
2023-04-06T16:11:22.942Z,2.30
2023-04-06T16:13:55.170Z,2.33
2023-04-06T16:16:24.406Z,2.30
2023-04-06T16:18:53.258Z,1.90
2023-04-06T16:21:22.008Z,2.17
2023-04-06T16:23:50.679Z,2.45
2023-04-06T16:26:21.771Z,3.10
2023-04-06T16:28:51.452Z,2.88
2023-04-06T16:31:22.057Z,2.40
2023-04-06T16:33:51.014Z,3.10
2023-04-06T16:36:24.055Z,2.83
2023-04-06T16:38:53.225Z,2.65
2023-04-06T16:41:23.436Z,3.05
2023-04-06T16:43:53.233Z,2.67
2023-04-06T16:46:21.860Z,2.83
2023-04-06T16:48:50.584Z,2.30
2023-04-06T16:51:19.245Z,2.83
2023-04-06T16:53:49.268Z,3.08
2023-04-06T16:56:18.024Z,2.58
2023-04-06T16:58:48.134Z,2.42
2023-04-06T17:01:20.866Z,2.28
2023-04-06T17:03:49.730Z,2.08
2023-04-06T17:06:18.858Z,2.00
2023-04-06T17:08:48.366Z,1.88
2023-04-06T17:11:21.628Z,2.28
2023-04-06T17:13:55.746Z,2.00
2023-04-06T17:16:25.509Z,1.92
2023-04-06T17:18:55.435Z,1.90
2023-04-06T17:21:24.059Z,1.90
2023-04-06T17:23:52.858Z,2.47
2023-04-06T17:26:21.729Z,2.03
2023-04-06T17:28:50.456Z,2.10
2023-04-06T17:31:20.510Z,2.30
2023-04-06T17:33:49.791Z,2.00
2023-04-06T17:36:20.560Z,2.30
2023-04-06T17:38:50.142Z,2.40
2023-04-06T17:41:18.753Z,2.63
2023-04-06T17:43:48.402Z,3.28
2023-04-06T17:46:17.817Z,2.35
2023-04-06T17:48:48.617Z,1.90
2023-04-06T17:51:19.417Z,1.98
2023-04-06T17:53:48.162Z,3.17
2023-04-06T17:56:16.897Z,2.40
2023-04-06T17:58:45.844Z,1.83
2023-04-06T18:01:14.734Z,2.38
2023-04-06T18:03:43.664Z,1.70
2023-04-06T18:06:15.960Z,1.45
2023-04-06T18:08:45.065Z,1.60
2023-04-06T18:11:18.388Z,2.05
2023-04-06T18:13:47.331Z,1.70
2023-04-06T18:16:17.258Z,1.60
2023-04-06T18:18:46.207Z,1.70
2023-04-06T18:21:16.277Z,1.70
2023-04-06T18:23:45.059Z,2.15
2023-04-06T18:26:18.249Z,1.75
2023-04-06T18:28:47.066Z,2.70
2023-04-06T18:31:16.619Z,2.30
2023-04-06T18:33:45.424Z,1.73
2023-04-06T18:36:14.723Z,1.80
2023-04-06T18:38:46.096Z,1.65
2023-04-06T18:41:14.843Z,1.67
2023-04-06T18:43:43.736Z,2.15
2023-04-06T18:46:14.066Z,2.78
2023-04-06T18:48:42.927Z,2.15
2023-04-06T18:51:11.626Z,1.95
2023-04-06T18:53:40.700Z,1.75
2023-04-06T18:56:16.727Z,3.13
2023-04-06T18:58:45.705Z,4.05
2023-04-06T19:01:22.106Z,3.17
2023-04-06T19:03:51.208Z,2.42
2023-04-06T19:06:20.124Z,2.90
2023-04-06T19:08:49.167Z,2.03
2023-04-06T19:11:19.936Z,2.42
2023-04-06T19:13:50.077Z,2.72
2023-04-06T19:16:19.365Z,2.28
2023-04-06T19:18:48.134Z,2.28
2023-04-06T19:21:17.728Z,2.47
2023-04-06T19:23:46.512Z,2.80
2023-04-06T19:26:15.813Z,2.83
2023-04-06T19:28:46.305Z,3.33
2023-04-06T19:31:16.304Z,4.18
2023-04-06T19:33:45.761Z,2.97
2023-04-06T19:36:14.919Z,2.70
2023-04-06T19:38:43.730Z,3.10
2023-04-06T19:41:12.558Z,3.75
2023-04-06T19:43:41.347Z,4.32
2023-04-06T19:46:13.951Z,3.33
2023-04-06T19:48:43.229Z,3.70
2023-04-06T19:51:11.919Z,4.93
2023-04-06T19:53:40.715Z,5.00
2023-04-06T19:56:10.205Z,2.83
2023-04-06T19:58:38.995Z,3.10
2023-04-06T20:01:07.733Z,3.50
2023-04-06T20:03:37.974Z,3.80
2023-04-06T20:06:07.134Z,3.17
2023-04-06T20:08:35.746Z,3.22
2023-04-06T20:11:05.647Z,2.63
2023-04-06T20:13:34.776Z,2.67
2023-04-06T20:16:03.533Z,4.45
2023-04-06T20:18:32.685Z,3.85
2023-04-06T20:21:02.923Z,3.95
2023-04-06T20:23:31.561Z,3.60
2023-04-06T20:26:00.261Z,3.30
2023-04-06T20:28:29.015Z,3.00
2023-04-06T20:30:57.706Z,2.90
2023-04-06T20:33:26.428Z,2.22
2023-04-06T20:35:58.807Z,2.13
2023-04-06T20:38:33.265Z,1.88
2023-04-06T20:41:03.140Z,1.67
2023-04-06T20:43:32.420Z,1.55
2023-04-06T20:46:02.565Z,1.60
2023-04-06T20:48:36.140Z,1.40
2023-04-06T20:51:07.714Z,1.90
2023-04-06T20:53:37.818Z,1.35
2023-04-06T20:56:06.810Z,1.50
2023-04-06T20:58:35.645Z,1.50
2023-04-06T21:01:04.321Z,1.10
2023-04-06T21:03:33.108Z,1.42
2023-04-06T21:06:02.190Z,2.30
2023-04-06T21:08:30.991Z,1.50
2023-04-06T21:11:00.987Z,1.92
2023-04-06T21:13:29.794Z,1.67
2023-04-06T21:15:58.590Z,1.50
2023-04-06T21:18:27.702Z,1.77
2023-04-06T21:20:56.459Z,1.60
2023-04-06T21:23:25.150Z,1.80
2023-04-06T21:25:57.100Z,1.50
2023-04-06T21:28:27.687Z,1.65
2023-04-06T21:30:56.399Z,1.70
2023-04-06T21:33:25.097Z,1.30
2023-04-06T21:35:54.039Z,1.85
2023-04-06T21:38:22.773Z,1.70
2023-04-06T21:40:56.520Z,1.70
2023-04-06T21:43:25.279Z,1.85
2023-04-06T21:45:55.317Z,1.60
2023-04-06T21:48:24.021Z,1.50
2023-04-06T21:50:52.762Z,1.75
2023-04-06T21:53:21.388Z,1.75
2023-04-06T21:55:51.092Z,1.90
2023-04-06T21:58:19.803Z,1.73
2023-04-06T22:00:48.610Z,1.60
2023-04-06T22:03:18.931Z,1.65
2023-04-06T22:05:47.858Z,1.75
2023-04-06T22:08:25.611Z,3.83
2023-04-06T22:11:02.373Z,1.80
2023-04-06T22:13:31.088Z,1.77
2023-04-06T22:15:59.716Z,1.90
2023-04-06T22:18:29.957Z,1.58
2023-04-06T22:20:58.687Z,1.60
2023-04-06T22:23:27.353Z,1.52
2023-04-06T22:25:58.044Z,1.80
2023-04-06T22:28:27.202Z,1.75
2023-04-06T22:30:55.962Z,1.60
2023-04-06T22:33:24.691Z,1.70
2023-04-06T22:35:54.859Z,1.67
2023-04-06T22:38:23.583Z,1.83
2023-04-06T22:40:52.372Z,2.20
2023-04-06T22:43:21.113Z,1.85
2023-04-06T22:45:49.779Z,1.92
2023-04-06T22:48:18.425Z,1.98
2023-04-06T22:50:47.189Z,2.35
2023-04-06T22:53:17.220Z,1.88
2023-04-06T22:58:15.386Z,2.30
2023-04-06T23:00:44.116Z,1.80
2023-04-06T23:03:13.226Z,1.92
2023-04-06T23:05:41.955Z,2.10
2023-04-06T23:08:10.789Z,1.95
2023-04-06T23:10:42.100Z,2.20
2023-04-06T23:13:10.978Z,2.05
2023-04-06T23:15:39.757Z,2.00
2023-04-06T23:18:08.574Z,1.90
2023-04-06T23:20:37.482Z,1.80
2023-04-06T23:23:06.207Z,2.20
2023-04-06T23:25:34.909Z,1.70
2023-04-06T23:28:04.963Z,1.88
2023-04-06T23:30:34.095Z,1.77
2023-04-06T23:33:02.911Z,1.75
2023-04-06T23:35:31.876Z,1.90
2023-04-06T23:38:00.601Z,1.80
2023-04-06T23:40:29.253Z,1.90
2023-04-06T23:42:58.008Z,1.95
2023-04-06T23:45:28.098Z,2.00
2023-04-06T23:47:56.929Z,1.77
2023-04-06T23:50:26.187Z,1.80
2023-04-06T23:52:54.855Z,1.65
2023-04-06T23:55:23.551Z,2.10
2023-04-06T23:57:52.231Z,2.22
